sensor_id;sensor_type;location;lat;lon;timestamp;pressure;altitude;pressure_sealevel;temperature;humidity
28628;BME280;15815;46.760;19.604;2023-07-29T00:00:57;99903.44;;;23.22;70.68
28628;BME280;15815;46.760;19.604;2023-07-29T00:03:24;99905.09;;;23.29;70.91
28628;BME280;15815;46.760;19.604;2023-07-29T00:05:49;99910.84;;;23.29;70.45
28628;BME280;15815;46.760;19.604;2023-07-29T00:08:15;99901.66;;;23.25;70.55
28628;BME280;15815;46.760;19.604;2023-07-29T00:10:40;99900.63;;;23.28;70.92
28628;BME280;15815;46.760;19.604;2023-07-29T00:13:07;99907.66;;;23.27;70.96
28628;BME280;15815;46.760;19.604;2023-07-29T00:15:33;99897.72;;;23.22;72.11
28628;BME280;15815;46.760;19.604;2023-07-29T00:17:58;99880.88;;;23.09;71.91
28628;BME280;15815;46.760;19.604;2023-07-29T00:20:27;99868.56;;;23.03;70.89
28628;BME280;15815;46.760;19.604;2023-07-29T00:22:52;99874.38;;;23.09;70.94
28628;BME280;15815;46.760;19.604;2023-07-29T00:25:18;99850.50;;;22.97;70.88
28628;BME280;15815;46.760;19.604;2023-07-29T00:27:43;99874.59;;;23.05;71.91
28628;BME280;15815;46.760;19.604;2023-07-29T00:30:09;99875.28;;;23.00;72.26
28628;BME280;15815;46.760;19.604;2023-07-29T00:32:35;99883.75;;;23.09;72.37
28628;BME280;15815;46.760;19.604;2023-07-29T00:35:01;99873.28;;;23.06;71.55
28628;BME280;15815;46.760;19.604;2023-07-29T00:37:27;99871.72;;;23.05;72.10
28628;BME280;15815;46.760;19.604;2023-07-29T00:39:53;99863.81;;;23.00;72.12
28628;BME280;15815;46.760;19.604;2023-07-29T00:42:18;99861.44;;;22.99;72.47
28628;BME280;15815;46.760;19.604;2023-07-29T00:44:45;99867.00;;;23.02;72.68
28628;BME280;15815;46.760;19.604;2023-07-29T00:47:11;99872.41;;;23.00;73.07
28628;BME280;15815;46.760;19.604;2023-07-29T00:49:38;99869.25;;;22.98;72.84
28628;BME280;15815;46.760;19.604;2023-07-29T00:52:03;99851.44;;;22.89;72.61
28628;BME280;15815;46.760;19.604;2023-07-29T00:54:29;99873.56;;;22.88;74.36
28628;BME280;15815;46.760;19.604;2023-07-29T00:56:58;99869.06;;;22.81;74.52
28628;BME280;15815;46.760;19.604;2023-07-29T00:59:23;99869.34;;;22.69;76.02
28628;BME280;15815;46.760;19.604;2023-07-29T01:01:49;99870.06;;;22.64;76.17
28628;BME280;15815;46.760;19.604;2023-07-29T01:04:15;99867.06;;;22.73;74.62
28628;BME280;15815;46.760;19.604;2023-07-29T01:09:30;99881.31;;;22.67;75.15
28628;BME280;15815;46.760;19.604;2023-07-29T01:13:16;99884.47;;;22.69;75.84
28628;BME280;15815;46.760;19.604;2023-07-29T01:15:20;99883.09;;;22.65;75.63
28628;BME280;15815;46.760;19.604;2023-07-29T01:17:50;99871.34;;;22.63;75.25
28628;BME280;15815;46.760;19.604;2023-07-29T01:20:19;99883.88;;;22.65;75.28
28628;BME280;15815;46.760;19.604;2023-07-29T01:22:44;99855.16;;;22.60;74.75
28628;BME280;15815;46.760;19.604;2023-07-29T01:25:11;99876.66;;;22.70;75.09
28628;BME280;15815;46.760;19.604;2023-07-29T01:27:37;99881.69;;;22.75;74.80
28628;BME280;15815;46.760;19.604;2023-07-29T01:30:03;99870.91;;;22.70;74.31
28628;BME280;15815;46.760;19.604;2023-07-29T01:37:33;99868.78;;;22.65;74.38
28628;BME280;15815;46.760;19.604;2023-07-29T01:40:00;99858.31;;;22.62;74.23
28628;BME280;15815;46.760;19.604;2023-07-29T01:42:27;99865.91;;;22.65;74.25
28628;BME280;15815;46.760;19.604;2023-07-29T01:44:53;99853.22;;;22.51;75.26
28628;BME280;15815;46.760;19.604;2023-07-29T01:47:20;99867.47;;;22.66;74.54
28628;BME280;15815;46.760;19.604;2023-07-29T01:49:46;99870.63;;;22.68;75.00
28628;BME280;15815;46.760;19.604;2023-07-29T01:52:11;99856.44;;;22.59;74.76
28628;BME280;15815;46.760;19.604;2023-07-29T01:54:36;99868.97;;;22.61;75.03
28628;BME280;15815;46.760;19.604;2023-07-29T01:57:02;99864.25;;;22.58;75.13
28628;BME280;15815;46.760;19.604;2023-07-29T01:59:28;99845.53;;;22.42;75.30
28628;BME280;15815;46.760;19.604;2023-07-29T02:01:53;99862.38;;;22.55;75.40
28628;BME280;15815;46.760;19.604;2023-07-29T02:04:18;99857.88;;;22.48;76.31
28628;BME280;15815;46.760;19.604;2023-07-29T02:06:44;99851.25;;;22.42;75.84
28628;BME280;15815;46.760;19.604;2023-07-29T02:09:09;99854.13;;;22.42;75.40
28628;BME280;15815;46.760;19.604;2023-07-29T02:11:38;99856.81;;;22.31;78.95
28628;BME280;15815;46.760;19.604;2023-07-29T02:14:04;99861.88;;;22.22;79.28
28628;BME280;15815;46.760;19.604;2023-07-29T02:16:29;99852.59;;;21.97;80.36
28628;BME280;15815;46.760;19.604;2023-07-29T02:18:54;99862.84;;;22.18;79.42
28628;BME280;15815;46.760;19.604;2023-07-29T02:21:20;99848.75;;;22.15;79.39
28628;BME280;15815;46.760;19.604;2023-07-29T02:23:46;99855.38;;;22.21;78.16
28628;BME280;15815;46.760;19.604;2023-07-29T02:26:11;99871.66;;;22.15;78.87
28628;BME280;15815;46.760;19.604;2023-07-29T02:28:36;99860.97;;;21.86;81.73
28628;BME280;15815;46.760;19.604;2023-07-29T02:31:16;99876.69;;;22.05;80.02
28628;BME280;15815;46.760;19.604;2023-07-29T02:33:43;99874.72;;;22.11;79.89
28628;BME280;15815;46.760;19.604;2023-07-29T02:36:09;99865.03;;;22.09;78.13
28628;BME280;15815;46.760;19.604;2023-07-29T02:38:34;99868.97;;;21.97;81.00
28628;BME280;15815;46.760;19.604;2023-07-29T02:41:00;99881.22;;;21.97;80.54
28628;BME280;15815;46.760;19.604;2023-07-29T02:43:25;99869.78;;;21.97;80.33
28628;BME280;15815;46.760;19.604;2023-07-29T02:45:51;99869.06;;;22.02;79.73
28628;BME280;15815;46.760;19.604;2023-07-29T02:48:16;99879.22;;;22.03;79.09
28628;BME280;15815;46.760;19.604;2023-07-29T02:50:42;99869.19;;;21.93;80.36
28628;BME280;15815;46.760;19.604;2023-07-29T02:53:07;99874.28;;;21.89;80.28
28628;BME280;15815;46.760;19.604;2023-07-29T02:55:33;99884.66;;;21.86;81.27
28628;BME280;15815;46.760;19.604;2023-07-29T02:57:58;99863.66;;;21.75;79.55
28628;BME280;15815;46.760;19.604;2023-07-29T03:00:24;99879.06;;;21.92;79.19
28628;BME280;15815;46.760;19.604;2023-07-29T03:02:50;99884.94;;;21.88;81.69
28628;BME280;15815;46.760;19.604;2023-07-29T03:05:16;99869.06;;;21.73;80.49
28628;BME280;15815;46.760;19.604;2023-07-29T03:07:41;99877.34;;;21.85;79.91
28628;BME280;15815;46.760;19.604;2023-07-29T03:10:07;99885.56;;;21.93;79.11
28628;BME280;15815;46.760;19.604;2023-07-29T03:12:32;99870.06;;;21.84;78.87
28628;BME280;15815;46.760;19.604;2023-07-29T03:14:59;99870.34;;;21.86;78.63
28628;BME280;15815;46.760;19.604;2023-07-29T03:17:24;99890.28;;;21.96;78.29
28628;BME280;15815;46.760;19.604;2023-07-29T03:19:50;99890.38;;;22.01;77.89
28628;BME280;15815;46.760;19.604;2023-07-29T03:22:15;99879.53;;;21.90;78.41
28628;BME280;15815;46.760;19.604;2023-07-29T03:24:41;99889.00;;;21.97;78.70
28628;BME280;15815;46.760;19.604;2023-07-29T03:27:06;99882.59;;;21.87;79.07
28628;BME280;15815;46.760;19.604;2023-07-29T03:29:32;99880.91;;;21.80;80.23
28628;BME280;15815;46.760;19.604;2023-07-29T03:31:57;99865.03;;;21.65;79.72
28628;BME280;15815;46.760;19.604;2023-07-29T03:34:23;99893.44;;;21.83;79.18
28628;BME280;15815;46.760;19.604;2023-07-29T03:36:48;99880.22;;;21.85;78.62
28628;BME280;15815;46.760;19.604;2023-07-29T03:39:14;99884.84;;;21.83;79.48
28628;BME280;15815;46.760;19.604;2023-07-29T03:41:39;99898.38;;;21.97;78.56
28628;BME280;15815;46.760;19.604;2023-07-29T03:44:05;99896.81;;;21.96;78.80
28628;BME280;15815;46.760;19.604;2023-07-29T03:46:31;99899.66;;;21.96;78.89
28628;BME280;15815;46.760;19.604;2023-07-29T03:48:56;99904.91;;;21.98;78.65
28628;BME280;15815;46.760;19.604;2023-07-29T03:51:22;99912.78;;;22.03;78.92
28628;BME280;15815;46.760;19.604;2023-07-29T03:53:47;99903.63;;;21.99;78.09
28628;BME280;15815;46.760;19.604;2023-07-29T03:56:13;99907.75;;;21.98;78.81
28628;BME280;15815;46.760;19.604;2023-07-29T03:58:38;99902.31;;;22.00;78.82
28628;BME280;15815;46.760;19.604;2023-07-29T04:01:04;99896.53;;;22.09;78.41
28628;BME280;15815;46.760;19.604;2023-07-29T04:03:29;99905.09;;;22.09;78.20
28628;BME280;15815;46.760;19.604;2023-07-29T04:05:55;99893.94;;;22.11;77.86
28628;BME280;15815;46.760;19.604;2023-07-29T04:08:20;99898.81;;;22.19;78.15
28628;BME280;15815;46.760;19.604;2023-07-29T04:10:46;99897.91;;;22.28;78.03
28628;BME280;15815;46.760;19.604;2023-07-29T04:13:11;99898.56;;;22.38;77.75
28628;BME280;15815;46.760;19.604;2023-07-29T04:15:37;99901.00;;;22.45;77.39
28628;BME280;15815;46.760;19.604;2023-07-29T04:18:02;99905.44;;;22.61;76.70
28628;BME280;15815;46.760;19.604;2023-07-29T04:20:28;99909.53;;;22.89;75.90
28628;BME280;15815;46.760;19.604;2023-07-29T04:22:54;99894.44;;;23.09;75.48
28628;BME280;15815;46.760;19.604;2023-07-29T04:25:19;99911.97;;;23.37;75.59
28628;BME280;15815;46.760;19.604;2023-07-29T04:27:45;99888.97;;;23.31;75.74
28628;BME280;15815;46.760;19.604;2023-07-29T04:30:10;99918.69;;;23.74;75.34
28628;BME280;15815;46.760;19.604;2023-07-29T04:32:36;99896.69;;;23.92;75.18
28628;BME280;15815;46.760;19.604;2023-07-29T04:35:02;99914.31;;;24.37;75.33
28628;BME280;15815;46.760;19.604;2023-07-29T04:37:27;99905.78;;;24.42;75.63
28628;BME280;15815;46.760;19.604;2023-07-29T04:39:54;99901.25;;;24.35;76.54
28628;BME280;15815;46.760;19.604;2023-07-29T04:42:20;99920.94;;;24.43;76.52
28628;BME280;15815;46.760;19.604;2023-07-29T04:44:46;99912.81;;;24.78;75.53
28628;BME280;15815;46.760;19.604;2023-07-29T04:47:11;99919.44;;;25.44;74.63
28628;BME280;15815;46.760;19.604;2023-07-29T04:49:37;99911.13;;;25.63;75.03
28628;BME280;15815;46.760;19.604;2023-07-29T04:52:02;99927.16;;;25.75;75.46
28628;BME280;15815;46.760;19.604;2023-07-29T04:54:28;99910.78;;;26.37;75.15
28628;BME280;15815;46.760;19.604;2023-07-29T04:56:53;99918.88;;;26.66;75.46
28628;BME280;15815;46.760;19.604;2023-07-29T04:59:19;99933.25;;;27.00;75.74
28628;BME280;15815;46.760;19.604;2023-07-29T05:01:44;99928.19;;;27.28;75.73
28628;BME280;15815;46.760;19.604;2023-07-29T05:04:10;99932.44;;;27.16;76.31
28628;BME280;15815;46.760;19.604;2023-07-29T05:06:35;99942.69;;;27.00;74.96
28628;BME280;15815;46.760;19.604;2023-07-29T05:09:12;99940.34;;;26.76;73.20
28628;BME280;15815;46.760;19.604;2023-07-29T05:11:38;99930.41;;;26.55;72.41
28628;BME280;15815;46.760;19.604;2023-07-29T05:14:03;99939.06;;;26.44;71.25
28628;BME280;15815;46.760;19.604;2023-07-29T05:16:29;99930.13;;;26.25;70.65
28628;BME280;15815;46.760;19.604;2023-07-29T05:18:54;99951.88;;;26.32;69.06
28628;BME280;15815;46.760;19.604;2023-07-29T05:21:20;99958.91;;;26.25;69.54
28628;BME280;15815;46.760;19.604;2023-07-29T05:23:45;99956.03;;;26.25;69.04
28628;BME280;15815;46.760;19.604;2023-07-29T05:26:14;99952.63;;;26.27;68.37
28628;BME280;15815;46.760;19.604;2023-07-29T05:28:39;99959.50;;;26.46;66.49
28628;BME280;15815;46.760;19.604;2023-07-29T05:31:05;99957.41;;;26.69;68.39
28628;BME280;15815;46.760;19.604;2023-07-29T05:33:30;99957.16;;;26.61;69.44
28628;BME280;15815;46.760;19.604;2023-07-29T05:35:56;99954.50;;;26.86;68.29
28628;BME280;15815;46.760;19.604;2023-07-29T05:38:21;99947.25;;;27.48;64.52
28628;BME280;15815;46.760;19.604;2023-07-29T05:40:50;99961.78;;;27.89;68.29
28628;BME280;15815;46.760;19.604;2023-07-29T05:43:15;99957.72;;;28.50;67.83
28628;BME280;15815;46.760;19.604;2023-07-29T05:45:41;99943.34;;;28.99;66.82
28628;BME280;15815;46.760;19.604;2023-07-29T05:48:06;99958.16;;;29.39;67.86
28628;BME280;15815;46.760;19.604;2023-07-29T05:50:31;99970.47;;;29.20;65.81
28628;BME280;15815;46.760;19.604;2023-07-29T05:52:57;99971.56;;;29.17;66.86
28628;BME280;15815;46.760;19.604;2023-07-29T05:55:22;99967.22;;;29.05;66.10
28628;BME280;15815;46.760;19.604;2023-07-29T05:57:48;99974.66;;;28.95;63.61
28628;BME280;15815;46.760;19.604;2023-07-29T06:00:13;99975.09;;;29.53;63.22
28628;BME280;15815;46.760;19.604;2023-07-29T06:02:39;99978.56;;;29.71;62.65
28628;BME280;15815;46.760;19.604;2023-07-29T06:05:05;99978.91;;;29.67;62.84
28628;BME280;15815;46.760;19.604;2023-07-29T06:07:30;99981.50;;;29.90;62.06
28628;BME280;15815;46.760;19.604;2023-07-29T06:09:56;99990.16;;;30.46;60.77
28628;BME280;15815;46.760;19.604;2023-07-29T06:12:21;99992.25;;;30.96;59.92
28628;BME280;15815;46.760;19.604;2023-07-29T06:14:47;99988.53;;;30.83;54.80
28628;BME280;15815;46.760;19.604;2023-07-29T06:17:12;99991.97;;;31.26;59.20
28628;BME280;15815;46.760;19.604;2023-07-29T06:19:38;99999.97;;;32.00;58.92
28628;BME280;15815;46.760;19.604;2023-07-29T06:22:03;100000.53;;;32.11;58.34
28628;BME280;15815;46.760;19.604;2023-07-29T06:24:29;99997.81;;;32.13;57.66
28628;BME280;15815;46.760;19.604;2023-07-29T06:26:54;100012.41;;;32.68;56.35
28628;BME280;15815;46.760;19.604;2023-07-29T06:29:20;99995.31;;;32.65;55.73
28628;BME280;15815;46.760;19.604;2023-07-29T06:31:45;100002.81;;;33.23;54.43
28628;BME280;15815;46.760;19.604;2023-07-29T06:34:11;99998.84;;;33.69;53.48
28628;BME280;15815;46.760;19.604;2023-07-29T06:36:36;100008.31;;;33.91;52.39
28628;BME280;15815;46.760;19.604;2023-07-29T06:39:02;100001.09;;;34.28;51.35
28628;BME280;15815;46.760;19.604;2023-07-29T06:41:28;100008.53;;;34.36;46.06
28628;BME280;15815;46.760;19.604;2023-07-29T06:43:53;100013.69;;;34.97;49.89
28628;BME280;15815;46.760;19.604;2023-07-29T06:46:18;100012.16;;;35.11;48.48
28628;BME280;15815;46.760;19.604;2023-07-29T06:48:44;100005.69;;;35.51;43.87
28628;BME280;15815;46.760;19.604;2023-07-29T06:51:09;100012.03;;;35.80;46.68
28628;BME280;15815;46.760;19.604;2023-07-29T06:53:38;100001.06;;;36.03;46.23
28628;BME280;15815;46.760;19.604;2023-07-29T06:56:04;100002.63;;;36.04;43.25
28628;BME280;15815;46.760;19.604;2023-07-29T06:58:30;99989.81;;;36.32;43.12
28628;BME280;15815;46.760;19.604;2023-07-29T07:00:55;99980.03;;;36.37;44.89
28628;BME280;15815;46.760;19.604;2023-07-29T07:03:21;100005.00;;;36.71;43.24
28628;BME280;15815;46.760;19.604;2023-07-29T07:05:47;100002.59;;;36.77;42.98
28628;BME280;15815;46.760;19.604;2023-07-29T07:08:12;99998.09;;;36.11;43.23
28628;BME280;15815;46.760;19.604;2023-07-29T07:10:37;99993.44;;;36.48;42.79
28628;BME280;15815;46.760;19.604;2023-07-29T07:13:03;99994.13;;;36.31;39.50
28628;BME280;15815;46.760;19.604;2023-07-29T07:15:28;100003.91;;;36.59;39.87
28628;BME280;15815;46.760;19.604;2023-07-29T07:17:54;99982.56;;;36.98;40.19
28628;BME280;15815;46.760;19.604;2023-07-29T07:20:19;99989.19;;;36.99;39.93
28628;BME280;15815;46.760;19.604;2023-07-29T07:22:45;99983.31;;;37.41;36.97
28628;BME280;15815;46.760;19.604;2023-07-29T07:25:10;100000.13;;;36.66;40.93
28628;BME280;15815;46.760;19.604;2023-07-29T07:27:36;99992.34;;;36.28;39.51
28628;BME280;15815;46.760;19.604;2023-07-29T07:30:02;99996.88;;;36.21;39.13
28628;BME280;15815;46.760;19.604;2023-07-29T07:32:28;99990.75;;;37.42;38.46
28628;BME280;15815;46.760;19.604;2023-07-29T07:34:53;100005.25;;;37.74;36.86
28628;BME280;15815;46.760;19.604;2023-07-29T07:37:18;100007.97;;;38.42;34.83
28628;BME280;15815;46.760;19.604;2023-07-29T07:39:44;100006.16;;;38.56;36.94
28628;BME280;15815;46.760;19.604;2023-07-29T07:42:09;100000.84;;;38.18;37.75
28628;BME280;15815;46.760;19.604;2023-07-29T07:44:35;100008.00;;;38.24;37.97
28628;BME280;15815;46.760;19.604;2023-07-29T07:47:00;100002.28;;;38.26;37.99
28628;BME280;15815;46.760;19.604;2023-07-29T07:49:26;99999.72;;;37.79;38.04
28628;BME280;15815;46.760;19.604;2023-07-29T07:51:51;99990.75;;;37.94;36.05
28628;BME280;15815;46.760;19.604;2023-07-29T07:54:17;99996.41;;;38.26;36.13
28628;BME280;15815;46.760;19.604;2023-07-29T07:56:43;99995.88;;;38.91;34.88
28628;BME280;15815;46.760;19.604;2023-07-29T07:59:08;99989.41;;;39.78;35.99
28628;BME280;15815;46.760;19.604;2023-07-29T08:01:38;100000.47;;;39.31;35.21
28628;BME280;15815;46.760;19.604;2023-07-29T08:04:03;99999.09;;;40.48;34.49
28628;BME280;15815;46.760;19.604;2023-07-29T08:06:30;100004.09;;;39.59;30.37
28628;BME280;15815;46.760;19.604;2023-07-29T08:08:55;99995.81;;;40.63;33.91
28628;BME280;15815;46.760;19.604;2023-07-29T08:11:21;100003.59;;;41.30;33.04
28628;BME280;15815;46.760;19.604;2023-07-29T08:13:46;99983.97;;;39.45;31.23
28628;BME280;15815;46.760;19.604;2023-07-29T08:16:12;99998.69;;;39.65;31.95
28628;BME280;15815;46.760;19.604;2023-07-29T08:18:38;99995.81;;;40.63;32.71
28628;BME280;15815;46.760;19.604;2023-07-29T08:21:03;99992.91;;;41.25;32.65
28628;BME280;15815;46.760;19.604;2023-07-29T08:23:34;99999.56;;;42.11;30.06
28628;BME280;15815;46.760;19.604;2023-07-29T08:26:01;100002.63;;;41.59;32.37
28628;BME280;15815;46.760;19.604;2023-07-29T08:28:29;100003.59;;;41.52;32.07
28628;BME280;15815;46.760;19.604;2023-07-29T08:30:55;100002.34;;;40.52;29.47
28628;BME280;15815;46.760;19.604;2023-07-29T08:33:20;99987.25;;;42.15;30.37
28628;BME280;15815;46.760;19.604;2023-07-29T08:35:46;99995.03;;;41.34;27.75
28628;BME280;15815;46.760;19.604;2023-07-29T08:38:11;99978.44;;;40.67;30.19
28628;BME280;15815;46.760;19.604;2023-07-29T08:43:38;99985.97;;;42.18;29.44
28628;BME280;15815;46.760;19.604;2023-07-29T08:46:04;99976.06;;;42.46;28.62
28628;BME280;15815;46.760;19.604;2023-07-29T08:48:40;99991.50;;;41.26;28.10
28628;BME280;15815;46.760;19.604;2023-07-29T08:51:07;99984.75;;;40.73;28.81
28628;BME280;15815;46.760;19.604;2023-07-29T08:53:34;99980.88;;;40.81;30.03
28628;BME280;15815;46.760;19.604;2023-07-29T08:56:00;99980.19;;;41.87;29.13
28628;BME280;15815;46.760;19.604;2023-07-29T08:58:26;99983.19;;;41.13;29.33
28628;BME280;15815;46.760;19.604;2023-07-29T09:00:52;99978.88;;;40.13;30.19
28628;BME280;15815;46.760;19.604;2023-07-29T09:03:17;99964.63;;;39.52;30.18
28628;BME280;15815;46.760;19.604;2023-07-29T09:05:43;99967.94;;;39.10;29.36
28628;BME280;15815;46.760;19.604;2023-07-29T09:08:09;99957.91;;;38.67;30.67
28628;BME280;15815;46.760;19.604;2023-07-29T09:10:36;99955.91;;;38.42;31.17
28628;BME280;15815;46.760;19.604;2023-07-29T09:13:02;99965.16;;;38.39;30.99
28628;BME280;15815;46.760;19.604;2023-07-29T09:15:33;99969.16;;;38.16;31.12
28628;BME280;15815;46.760;19.604;2023-07-29T09:17:59;99957.66;;;37.84;31.72
28628;BME280;15815;46.760;19.604;2023-07-29T09:20:33;99957.75;;;36.99;33.19
28628;BME280;15815;46.760;19.604;2023-07-29T09:22:59;99954.38;;;37.45;32.86
28628;BME280;15815;46.760;19.604;2023-07-29T09:25:26;99951.16;;;37.51;32.33
28628;BME280;15815;46.760;19.604;2023-07-29T09:27:51;99956.34;;;37.42;32.23
28628;BME280;15815;46.760;19.604;2023-07-29T09:30:17;99948.88;;;37.24;32.55
28628;BME280;15815;46.760;19.604;2023-07-29T09:32:43;99938.63;;;37.16;32.97
28628;BME280;15815;46.760;19.604;2023-07-29T09:35:12;99936.66;;;38.31;30.17
28628;BME280;15815;46.760;19.604;2023-07-29T09:37:38;99927.13;;;39.23;30.58
28628;BME280;15815;46.760;19.604;2023-07-29T09:40:12;99939.06;;;39.35;29.86
28628;BME280;15815;46.760;19.604;2023-07-29T09:42:51;99943.69;;;39.38;31.04
28628;BME280;15815;46.760;19.604;2023-07-29T09:45:26;99929.88;;;40.37;30.37
28628;BME280;15815;46.760;19.604;2023-07-29T09:47:57;99926.88;;;41.09;28.12
28628;BME280;15815;46.760;19.604;2023-07-29T09:50:23;99939.66;;;39.24;31.17
28628;BME280;15815;46.760;19.604;2023-07-29T09:52:51;99934.31;;;38.93;31.71
28628;BME280;15815;46.760;19.604;2023-07-29T09:55:24;99931.38;;;40.79;31.47
28628;BME280;15815;46.760;19.604;2023-07-29T09:57:56;99916.34;;;41.91;30.03
28628;BME280;15815;46.760;19.604;2023-07-29T10:00:23;99923.44;;;42.54;28.98
28628;BME280;15815;46.760;19.604;2023-07-29T10:02:48;99924.41;;;42.24;27.46
28628;BME280;15815;46.760;19.604;2023-07-29T10:05:15;99919.72;;;42.54;29.02
28628;BME280;15815;46.760;19.604;2023-07-29T10:07:41;99914.00;;;41.90;25.93
28628;BME280;15815;46.760;19.604;2023-07-29T10:10:08;99916.69;;;42.42;27.90
28628;BME280;15815;46.760;19.604;2023-07-29T10:12:35;99921.28;;;41.77;28.73
28628;BME280;15815;46.760;19.604;2023-07-29T10:15:05;99905.25;;;41.59;28.43
28628;BME280;15815;46.760;19.604;2023-07-29T10:17:38;99906.41;;;41.11;28.63
28628;BME280;15815;46.760;19.604;2023-07-29T10:20:05;99907.50;;;39.84;29.02
28628;BME280;15815;46.760;19.604;2023-07-29T10:22:35;99909.22;;;39.58;29.62
28628;BME280;15815;46.760;19.604;2023-07-29T10:25:22;99912.25;;;39.12;29.65
28628;BME280;15815;46.760;19.604;2023-07-29T10:28:00;99901.09;;;38.91;30.32
28628;BME280;15815;46.760;19.604;2023-07-29T10:30:29;99902.97;;;40.12;29.65
28628;BME280;15815;46.760;19.604;2023-07-29T10:32:58;99915.88;;;39.68;29.51
28628;BME280;15815;46.760;19.604;2023-07-29T10:35:24;99908.75;;;39.62;29.12
28628;BME280;15815;46.760;19.604;2023-07-29T10:37:52;99912.97;;;40.38;29.87
28628;BME280;15815;46.760;19.604;2023-07-29T10:40:18;99893.72;;;39.38;29.02
28628;BME280;15815;46.760;19.604;2023-07-29T10:43:11;99901.81;;;38.72;29.95
28628;BME280;15815;46.760;19.604;2023-07-29T10:45:38;99907.25;;;37.95;31.33
28628;BME280;15815;46.760;19.604;2023-07-29T10:51:31;99894.63;;;38.29;30.30
28628;BME280;15815;46.760;19.604;2023-07-29T10:54:11;99897.00;;;38.67;30.35
28628;BME280;15815;46.760;19.604;2023-07-29T10:56:42;99891.66;;;38.92;31.70
28628;BME280;15815;46.760;19.604;2023-07-29T11:01:39;99879.00;;;37.21;31.15
28628;BME280;15815;46.760;19.604;2023-07-29T11:17:39;99880.00;;;36.81;31.61
28628;BME280;15815;46.760;19.604;2023-07-29T11:20:05;99879.03;;;37.55;32.07
28628;BME280;15815;46.760;19.604;2023-07-29T11:22:31;99871.31;;;37.77;32.02
28628;BME280;15815;46.760;19.604;2023-07-29T11:24:57;99865.88;;;37.73;31.37
28628;BME280;15815;46.760;19.604;2023-07-29T11:27:23;99864.25;;;37.63;32.29
28628;BME280;15815;46.760;19.604;2023-07-29T11:30:02;99866.91;;;37.86;30.46
28628;BME280;15815;46.760;19.604;2023-07-29T11:35:22;99878.34;;;37.91;32.86
28628;BME280;15815;46.760;19.604;2023-07-29T11:37:49;99882.97;;;37.85;32.75
28628;BME280;15815;46.760;19.604;2023-07-29T11:40:22;99872.03;;;37.95;31.58
28628;BME280;15815;46.760;19.604;2023-07-29T11:42:51;99875.31;;;37.37;31.67
28628;BME280;15815;46.760;19.604;2023-07-29T11:45:20;99882.66;;;37.29;32.61
28628;BME280;15815;46.760;19.604;2023-07-29T11:47:46;99875.22;;;37.10;32.54
28628;BME280;15815;46.760;19.604;2023-07-29T11:50:13;99865.91;;;36.37;32.59
28628;BME280;15815;46.760;19.604;2023-07-29T11:52:43;99863.63;;;36.28;32.67
28628;BME280;15815;46.760;19.604;2023-07-29T11:55:09;99867.22;;;36.19;32.44
28628;BME280;15815;46.760;19.604;2023-07-29T11:57:36;99857.88;;;36.13;32.42
28628;BME280;15815;46.760;19.604;2023-07-29T12:00:07;99866.03;;;36.14;31.89
28628;BME280;15815;46.760;19.604;2023-07-29T12:02:36;99858.28;;;36.09;32.57
28628;BME280;15815;46.760;19.604;2023-07-29T12:05:03;99855.31;;;36.17;32.90
28628;BME280;15815;46.760;19.604;2023-07-29T12:07:32;99847.41;;;36.35;33.00
28628;BME280;15815;46.760;19.604;2023-07-29T12:09:58;99858.38;;;36.51;32.88
28628;BME280;15815;46.760;19.604;2023-07-29T12:12:24;99832.81;;;36.27;34.44
28628;BME280;15815;46.760;19.604;2023-07-29T12:14:50;99850.13;;;36.58;33.42
28628;BME280;15815;46.760;19.604;2023-07-29T12:17:15;99840.94;;;36.36;33.01
28628;BME280;15815;46.760;19.604;2023-07-29T12:19:42;99848.22;;;36.52;33.91
28628;BME280;15815;46.760;19.604;2023-07-29T12:22:09;99840.66;;;36.67;34.38
28628;BME280;15815;46.760;19.604;2023-07-29T12:24:37;99836.75;;;36.72;33.95
28628;BME280;15815;46.760;19.604;2023-07-29T12:27:03;99834.28;;;36.86;34.36
28628;BME280;15815;46.760;19.604;2023-07-29T12:29:28;99825.59;;;36.53;34.32
28628;BME280;15815;46.760;19.604;2023-07-29T12:32:02;99828.97;;;36.67;34.63
28628;BME280;15815;46.760;19.604;2023-07-29T12:34:28;99836.88;;;36.57;34.05
28628;BME280;15815;46.760;19.604;2023-07-29T12:36:55;99835.06;;;36.44;35.17
28628;BME280;15815;46.760;19.604;2023-07-29T12:41:49;99829.44;;;36.06;35.36
28628;BME280;15815;46.760;19.604;2023-07-29T12:44:15;99813.09;;;36.03;33.89
28628;BME280;15815;46.760;19.604;2023-07-29T12:46:41;99817.16;;;35.75;34.71
28628;BME280;15815;46.760;19.604;2023-07-29T12:49:06;99812.09;;;35.27;34.36
28628;BME280;15815;46.760;19.604;2023-07-29T12:51:32;99823.13;;;35.52;33.92
28628;BME280;15815;46.760;19.604;2023-07-29T12:53:57;99815.47;;;35.16;32.28
28628;BME280;15815;46.760;19.604;2023-07-29T12:56:23;99810.16;;;35.38;33.04
28628;BME280;15815;46.760;19.604;2023-07-29T12:58:48;99816.56;;;35.44;34.26
28628;BME280;15815;46.760;19.604;2023-07-29T13:01:14;99830.41;;;35.76;33.78
28628;BME280;15815;46.760;19.604;2023-07-29T13:03:40;99838.56;;;35.85;33.94
28628;BME280;15815;46.760;19.604;2023-07-29T13:06:05;99816.72;;;35.86;34.43
28628;BME280;15815;46.760;19.604;2023-07-29T13:08:31;99805.34;;;35.98;34.36
28628;BME280;15815;46.760;19.604;2023-07-29T13:10:56;99807.78;;;36.09;33.06
28628;BME280;15815;46.760;19.604;2023-07-29T13:13:22;99799.13;;;35.94;34.10
28628;BME280;15815;46.760;19.604;2023-07-29T13:15:47;99821.41;;;35.89;32.96
28628;BME280;15815;46.760;19.604;2023-07-29T13:18:13;99818.78;;;36.01;34.48
28628;BME280;15815;46.760;19.604;2023-07-29T13:20:38;99813.81;;;36.11;31.63
28628;BME280;15815;46.760;19.604;2023-07-29T13:23:03;99813.63;;;35.76;34.43